createdAt,value
2022-10-09T00:04:35.333Z,11.86
2022-10-09T00:09:38.825Z,11.72
2022-10-09T00:14:43.598Z,11.68
2022-10-09T00:19:46.969Z,11.63
2022-10-09T00:24:50.351Z,11.87
2022-10-09T00:29:55.138Z,12.05
2022-10-09T00:34:58.512Z,12.11
2022-10-09T00:40:01.990Z,12.17
2022-10-09T00:45:20.057Z,12.20
2022-10-09T00:50:26.641Z,12.11
2022-10-09T00:55:31.309Z,12.06
2022-10-09T01:00:36.428Z,11.80
2022-10-09T01:05:48.822Z,11.76
2022-10-09T01:11:00.683Z,11.72
2022-10-09T01:16:11.941Z,11.87
2022-10-09T01:21:19.959Z,12.03
2022-10-09T01:26:40.204Z,12.07
2022-10-09T01:31:48.797Z,11.89
2022-10-09T01:36:53.738Z,11.75
2022-10-09T01:41:58.412Z,11.86
2022-10-09T01:47:04.700Z,11.89
2022-10-09T01:52:20.016Z,11.83
2022-10-09T01:57:29.751Z,11.68
2022-10-09T02:02:35.599Z,11.68
2022-10-09T02:07:39.693Z,11.75
2022-10-09T02:12:47.454Z,11.61
2022-10-09T02:17:57.607Z,11.63
2022-10-09T02:23:03.813Z,11.59
2022-10-09T02:28:08.564Z,11.58
2022-10-09T02:33:13.334Z,11.58
2022-10-09T02:38:16.768Z,11.52
2022-10-09T02:43:20.118Z,11.54
2022-10-09T02:48:24.986Z,11.50
2022-10-09T02:53:28.683Z,11.47
2022-10-09T02:58:33.025Z,11.40
2022-10-09T03:03:37.852Z,11.37
2022-10-09T03:08:42.947Z,11.28
2022-10-09T03:13:46.731Z,11.17
2022-10-09T03:18:52.521Z,11.22
2022-10-09T03:23:56.435Z,11.23
2022-10-09T03:28:59.791Z,11.16
2022-10-09T03:34:04.894Z,11.14
2022-10-09T03:39:08.233Z,11.17
2022-10-09T03:44:11.634Z,11.23
2022-10-09T03:49:17.288Z,11.16
2022-10-09T03:54:20.657Z,11.14
2022-10-09T03:59:24.077Z,11.20
2022-10-09T04:04:28.901Z,11.22
2022-10-09T04:09:32.550Z,11.21
2022-10-09T04:14:35.952Z,11.20
2022-10-09T04:19:40.734Z,11.20
2022-10-09T04:24:44.131Z,11.25
2022-10-09T04:29:47.824Z,11.24
2022-10-09T04:34:52.583Z,11.23
2022-10-09T04:39:55.996Z,11.00
2022-10-09T04:44:59.682Z,11.01
2022-10-09T04:50:05.092Z,11.16
2022-10-09T04:55:09.200Z,11.18
2022-10-09T05:00:14.134Z,11.23
2022-10-09T05:05:18.924Z,11.36
2022-10-09T05:10:22.339Z,11.54
2022-10-09T05:15:25.776Z,11.76
2022-10-09T05:20:30.491Z,11.93
2022-10-09T05:25:33.814Z,12.15
2022-10-09T05:30:41.518Z,12.34
2022-10-09T05:35:53.273Z,12.57
2022-10-09T05:40:59.283Z,12.80
2022-10-09T05:46:07.603Z,13.06
2022-10-09T05:51:15.339Z,13.32
2022-10-09T05:56:21.665Z,13.58
2022-10-09T06:01:27.686Z,13.90
2022-10-09T06:06:34.508Z,14.12
2022-10-09T06:11:40.067Z,14.26
2022-10-09T06:16:45.038Z,14.40
2022-10-09T06:21:50.626Z,14.61
2022-10-09T06:26:54.030Z,14.76
2022-10-09T06:31:57.534Z,15.05
2022-10-09T06:37:02.350Z,15.26
2022-10-09T06:42:06.142Z,15.51
2022-10-09T06:47:27.481Z,15.81
2022-10-09T06:52:32.284Z,16.16
2022-10-09T06:57:35.714Z,16.32
2022-10-09T07:02:45.741Z,16.49
2022-10-09T07:07:50.666Z,16.83
2022-10-09T07:12:54.204Z,17.19
2022-10-09T07:17:57.738Z,17.59
2022-10-09T07:23:02.823Z,17.90
2022-10-09T07:28:06.356Z,18.18
2022-10-09T07:33:10.103Z,18.62
2022-10-09T07:38:14.948Z,18.81
2022-10-09T07:43:18.454Z,19.15
2022-10-09T07:48:21.861Z,19.37
2022-10-09T07:53:26.693Z,19.67
2022-10-09T07:58:30.341Z,19.59
2022-10-09T08:03:33.936Z,19.83
2022-10-09T08:08:38.775Z,20.21
2022-10-09T08:13:43.436Z,20.43
2022-10-09T08:18:46.900Z,20.75
2022-10-09T08:23:55.760Z,21.03
2022-10-09T08:29:01.133Z,21.50
2022-10-09T08:34:05.192Z,21.03
2022-10-09T08:39:10.225Z,21.33
2022-10-09T08:44:19.208Z,21.69
2022-10-09T08:49:28.934Z,21.87
2022-10-09T08:54:37.292Z,22.30
2022-10-09T08:59:41.051Z,22.64
2022-10-09T09:04:56.750Z,22.55
2022-10-09T09:10:06.886Z,22.85
2022-10-09T09:15:31.450Z,23.30
2022-10-09T09:20:49.064Z,23.04
2022-10-09T09:25:54.009Z,23.03
2022-10-09T09:31:00.906Z,23.27
2022-10-09T09:36:10.606Z,23.48
2022-10-09T09:41:15.794Z,23.68
2022-10-09T09:46:22.570Z,23.66
2022-10-09T09:51:29.726Z,24.18
2022-10-09T09:56:59.741Z,24.41
2022-10-09T10:02:03.690Z,24.62
2022-10-09T10:07:07.530Z,23.85
2022-10-09T10:12:18.302Z,23.65
2022-10-09T10:17:29.868Z,24.78
2022-10-09T10:22:33.823Z,24.77
2022-10-09T10:27:42.444Z,25.04
2022-10-09T10:32:52.364Z,24.41
2022-10-09T10:38:03.218Z,24.63
2022-10-09T10:43:24.696Z,24.50
2022-10-09T10:48:30.674Z,24.18
2022-10-09T10:53:49.886Z,24.69
2022-10-09T10:59:04.730Z,25.13
2022-10-09T11:04:23.040Z,24.55
2022-10-09T11:09:40.417Z,24.32
2022-10-09T11:14:53.804Z,24.62
2022-10-09T11:20:36.011Z,24.53
2022-10-09T11:25:47.745Z,24.41
2022-10-09T11:30:58.919Z,24.21
2022-10-09T11:36:06.449Z,24.02
2022-10-09T11:41:10.056Z,24.19
2022-10-09T11:46:22.853Z,24.46
2022-10-09T11:51:36.577Z,23.85
2022-10-09T11:56:39.983Z,23.78
2022-10-09T12:01:47.634Z,23.46
2022-10-09T12:06:54.595Z,24.09
2022-10-09T12:12:06.280Z,24.70
2022-10-09T12:17:18.921Z,24.75
2022-10-09T12:22:26.503Z,24.26
2022-10-09T12:27:35.339Z,24.16
2022-10-09T12:32:43.295Z,24.03
2022-10-09T12:37:46.662Z,24.06
2022-10-09T12:42:52.825Z,23.94
2022-10-09T12:48:00.108Z,22.83
2022-10-09T12:53:06.010Z,23.37
2022-10-09T12:58:28.378Z,22.78
2022-10-09T13:03:38.459Z,22.80
2022-10-09T13:08:42.853Z,22.74
2022-10-09T13:13:50.756Z,22.41
2022-10-09T13:19:00.133Z,22.51
2022-10-09T13:24:12.026Z,22.32
2022-10-09T13:29:16.109Z,22.08
2022-10-09T13:34:23.770Z,21.72
2022-10-09T13:39:27.431Z,21.91
2022-10-09T13:44:30.942Z,21.84
2022-10-09T13:49:36.020Z,21.68
2022-10-09T13:54:39.443Z,21.72
2022-10-09T13:59:43.424Z,21.44
2022-10-09T14:04:48.449Z,21.65
2022-10-09T14:09:51.789Z,21.57
2022-10-09T14:14:55.363Z,21.57
2022-10-09T14:20:00.501Z,21.61
2022-10-09T14:25:04.676Z,21.47
2022-10-09T14:30:09.462Z,21.25
2022-10-09T14:35:18.149Z,21.13
2022-10-09T14:40:24.405Z,21.16
2022-10-09T14:45:29.099Z,21.11
2022-10-09T14:50:37.155Z,20.88
2022-10-09T14:55:40.812Z,20.74
2022-10-09T15:00:47.880Z,20.55
2022-10-09T15:05:52.727Z,20.36
2022-10-09T15:10:56.162Z,20.34
2022-10-09T15:16:00.451Z,20.15
2022-10-09T15:21:05.986Z,20.00
2022-10-09T15:26:09.981Z,19.80
2022-10-09T15:31:22.121Z,19.53
2022-10-09T15:36:27.379Z,19.14
2022-10-09T15:41:32.470Z,19.03
2022-10-09T15:46:36.533Z,18.73
2022-10-09T15:51:41.505Z,18.37
2022-10-09T15:56:45.458Z,18.27
2022-10-09T16:01:50.532Z,18.06
2022-10-09T16:06:55.356Z,17.78
2022-10-09T16:11:58.690Z,17.49
2022-10-09T16:17:02.088Z,17.20
2022-10-09T16:22:07.030Z,17.14
2022-10-09T16:27:10.494Z,17.02
2022-10-09T16:32:14.158Z,16.74
2022-10-09T16:37:18.941Z,16.67
2022-10-09T16:42:22.383Z,16.64
2022-10-09T16:47:25.992Z,16.19
2022-10-09T16:52:31.072Z,15.90
2022-10-09T16:57:34.513Z,15.54
2022-10-09T17:02:38.271Z,15.64
2022-10-09T17:07:43.270Z,15.45
2022-10-09T17:12:46.664Z,15.22
2022-10-09T17:17:50.449Z,15.11
2022-10-09T17:22:55.533Z,15.26
2022-10-09T17:27:59.167Z,15.32
2022-10-09T17:33:03.588Z,14.89
2022-10-09T17:38:08.672Z,14.59
2022-10-09T17:43:12.091Z,14.68
2022-10-09T17:48:15.584Z,14.52
2022-10-09T17:53:20.387Z,14.45
2022-10-09T17:58:25.153Z,14.51
2022-10-09T18:03:28.601Z,14.42
2022-10-09T18:08:33.455Z,14.40
2022-10-09T18:13:39.942Z,14.32
2022-10-09T18:18:43.636Z,14.21
2022-10-09T18:23:49.376Z,14.06
2022-10-09T18:28:52.808Z,13.97
2022-10-09T18:33:56.279Z,13.87
2022-10-09T18:39:05.184Z,13.80
2022-10-09T18:44:17.299Z,13.69
2022-10-09T18:49:24.124Z,13.41
2022-10-09T18:54:31.075Z,13.32
2022-10-09T18:59:38.088Z,13.43
2022-10-09T19:04:41.740Z,13.41
2022-10-09T19:09:51.372Z,13.40
2022-10-09T19:14:58.440Z,13.38
2022-10-09T19:20:01.829Z,13.37
2022-10-09T19:25:09.066Z,13.37
2022-10-09T19:30:14.308Z,13.08
2022-10-09T19:35:18.237Z,13.06
2022-10-09T19:40:23.009Z,13.05
2022-10-09T19:45:26.503Z,12.99
2022-10-09T19:50:30.574Z,13.00
2022-10-09T19:55:35.982Z,12.97
2022-10-09T20:00:43.491Z,13.34
2022-10-09T20:05:46.956Z,13.65
2022-10-09T20:10:52.046Z,13.72
2022-10-09T20:15:55.459Z,13.64
2022-10-09T20:20:59.461Z,13.57
2022-10-09T20:26:07.380Z,13.67
2022-10-09T20:31:15.094Z,13.74
2022-10-09T20:36:23.265Z,13.73
2022-10-09T20:41:29.555Z,13.87
2022-10-09T20:46:34.925Z,14.00
2022-10-09T20:51:39.758Z,14.05
2022-10-09T20:56:45.180Z,14.09
2022-10-09T21:01:48.947Z,14.16
2022-10-09T21:06:52.271Z,14.12
2022-10-09T21:11:57.066Z,14.25
2022-10-09T21:17:00.597Z,14.33
2022-10-09T21:22:04.047Z,14.16
2022-10-09T21:27:08.854Z,14.18
2022-10-09T21:32:12.571Z,14.06
2022-10-09T21:37:21.439Z,14.07
2022-10-09T21:42:26.844Z,13.97
2022-10-09T21:47:30.524Z,13.89
2022-10-09T21:52:33.964Z,13.79
2022-10-09T21:57:39.019Z,13.79
2022-10-09T22:02:42.449Z,13.72
2022-10-09T22:07:45.858Z,13.63
2022-10-09T22:12:51.121Z,13.63
2022-10-09T22:17:54.675Z,13.53
2022-10-09T22:22:58.384Z,13.49
2022-10-09T22:28:03.336Z,13.49
2022-10-09T22:33:06.746Z,13.43
2022-10-09T22:38:10.227Z,13.55
2022-10-09T22:43:15.027Z,13.60
2022-10-09T22:48:18.448Z,13.46
2022-10-09T22:53:21.825Z,13.45
2022-10-09T22:58:26.743Z,13.34
2022-10-09T23:03:30.442Z,13.32
2022-10-09T23:08:33.919Z,13.31
2022-10-09T23:13:39.176Z,13.30
2022-10-09T23:18:44.235Z,13.32
2022-10-09T23:23:49.236Z,13.24
2022-10-09T23:28:56.886Z,13.28
2022-10-09T23:34:01.129Z,13.16
2022-10-09T23:39:06.067Z,13.27
2022-10-09T23:44:10.885Z,13.20
2022-10-09T23:49:14.305Z,13.01
2022-10-09T23:54:17.787Z,13.27
2022-10-09T23:59:22.569Z,13.11
